Time;durP1;ratioP1;P1;durP2;ratioP2;P2;SDS_P1;SDS_P2;PMS_P1;PMS_P2;Temp;Humidity;BMP_temperature;BMP_pressure;BME280_temperature;BME280_humidity;BME280_pressure;Samples;Min_cycle;Max_cycle;Signal;HPM_P1;HPM_P2
2022/01/25 00:08:23;;;;;;;2.00;1.90;;;;;;;-1.72;100.00;100379.63;4934765;28;20102;-73
2022/01/25 00:31:10;;;;;;;2.22;2.10;;;;;;;-2.01;100.00;100391.53;4937759;29;20123;-73
2022/01/25 00:33:38;;;;;;;1.83;1.80;;;;;;;-2.03;100.00;100384.59;4937653;29;20031;-73
2022/01/25 00:36:06;;;;;;;2.50;2.20;;;;;;;-2.03;100.00;100389.69;4937522;29;20123;-73
2022/01/25 00:38:33;;;;;;;3.05;2.75;;;;;;;-2.05;100.00;100382.00;4937453;29;20035;-73
2022/01/25 00:40:58;;;;;;;2.03;1.92;;;;;;;-1.97;100.00;100390.94;4937584;29;20031;-72
2022/01/25 00:43:26;;;;;;;1.90;1.80;;;;;;;-2.00;100.00;100390.75;4937971;29;20415;-73
2022/01/25 00:45:54;;;;;;;2.50;2.30;;;;;;;-2.07;100.00;100391.19;4937446;29;20027;-73
2022/01/25 00:48:30;;;;;;;1.95;1.85;;;;;;;-2.08;100.00;100387.78;4937379;29;20035;-73
2022/01/25 00:51:16;;;;;;;1.25;1.25;;;;;;;-2.09;100.00;100390.22;4937306;29;20477;-73
2022/01/25 00:56:35;;;;;;;3.95;2.60;;;;;;;-2.09;100.00;100388.53;4937230;29;20028;-73
2022/01/25 00:59:12;;;;;;;1.20;1.17;;;;;;;-2.05;100.00;100391.28;4937380;29;20051;-73
2022/01/25 05:16:31;;;;;;;1.48;1.48;;;;;;;-3.16;100.00;100328.00;5471901;23;20464;-69
2022/01/25 05:19:08;;;;;;;1.60;1.60;;;;;;;-3.19;100.00;100330.31;4936863;29;20087;-69
2022/01/25 05:24:18;;;;;;;1.02;1.02;;;;;;;-3.14;100.00;100331.53;4937236;29;20098;-69
2022/01/25 05:26:44;;;;;;;1.58;1.52;;;;;;;-3.07;100.00;100323.50;4923711;29;20477;-69
2022/01/25 05:29:10;;;;;;;1.40;1.40;;;;;;;-3.10;100.00;100323.28;4918445;29;20466;-72
2022/01/25 05:31:36;;;;;;;1.63;1.48;;;;;;;-3.12;100.00;100319.81;4917614;29;20474;-72
2022/01/25 05:34:02;;;;;;;2.63;2.47;;;;;;;-3.20;100.00;100326.03;4925474;29;20031;-72
2022/01/25 05:36:27;;;;;;;1.60;1.58;;;;;;;-3.20;100.00;100331.13;4917592;29;20036;-72
2022/01/25 05:38:57;;;;;;;2.05;1.95;;;;;;;-3.27;100.00;100329.00;4917623;29;20059;-72
2022/01/25 05:41:26;;;;;;;3.05;2.85;;;;;;;-3.26;100.00;100329.09;4917689;29;20108;-72
2022/01/25 05:46:44;;;;;;;1.23;1.15;;;;;;;-3.27;100.00;100334.06;4917628;29;20035;-72
2022/01/25 05:49:09;;;;;;;1.45;1.45;;;;;;;-3.20;100.00;100341.25;4918054;29;20044;-72
2022/01/25 05:51:34;;;;;;;4.60;4.15;;;;;;;-3.23;100.00;100330.94;4917435;29;20028;-72
2022/01/25 05:53:59;;;;;;;1.65;1.65;;;;;;;-3.17;100.00;100332.19;4917414;29;20541;-73
2022/01/25 05:56:25;;;;;;;3.00;2.53;;;;;;;-3.15;100.00;100330.59;4917034;29;20036;-73
2022/01/25 05:58:50;;;;;;;3.10;2.83;;;;;;;-3.11;100.00;100336.75;4917024;29;20103;-73
2022/01/25 06:01:18;;;;;;;2.78;2.65;;;;;;;-3.18;100.00;100344.78;4917267;29;20481;-73
2022/01/25 06:03:45;;;;;;;15.40;3.00;;;;;;;-3.17;100.00;100346.53;4924641;29;20035;-73
2022/01/25 06:06:10;;;;;;;1.90;1.67;;;;;;;-3.18;100.00;100344.78;4929164;29;20115;-73
2022/01/25 06:08:36;;;;;;;3.03;2.10;;;;;;;-3.16;100.00;100343.19;4935874;29;20525;-73
2022/01/25 06:11:01;;;;;;;3.00;2.90;;;;;;;-3.11;100.00;100351.97;4934637;29;20504;-73
2022/01/25 06:13:26;;;;;;;3.15;2.95;;;;;;;-3.14;100.00;100352.66;4934630;29;20032;-73
2022/01/25 06:15:52;;;;;;;3.05;2.85;;;;;;;-3.15;100.00;100352.56;4934255;29;20094;-73
2022/01/25 06:18:17;;;;;;;7.85;1.95;;;;;;;-3.10;100.00;100356.25;4935653;29;20107;-72
2022/01/25 06:20:42;;;;;;;2.75;2.58;;;;;;;-3.14;100.00;100351.78;4935739;29;20024;-73
2022/01/25 06:23:08;;;;;;;1.20;1.20;;;;;;;-3.11;100.00;100362.09;4935797;29;20027;-72
2022/01/25 06:25:34;;;;;;;1.13;1.13;;;;;;;-3.12;100.00;100363.75;4935613;29;20035;-73
2022/01/25 06:28:00;;;;;;;1.55;1.55;;;;;;;-3.22;100.00;100371.59;4935817;29;20031;-73
2022/01/25 06:30:25;;;;;;;1.02;1.02;;;;;;;-3.20;100.00;100366.59;4935724;29;20110;-71
2022/01/25 06:32:51;;;;;;;3.50;3.20;;;;;;;-3.24;100.00;100367.19;4927776;29;20119;-71
2022/01/25 06:35:18;;;;;;;1.33;1.33;;;;;;;-3.23;100.00;100367.31;4927673;29;20552;-71
2022/01/25 06:37:45;;;;;;;6.03;3.40;;;;;;;-3.20;100.00;100372.53;4935427;29;20413;-71
2022/01/25 06:40:11;;;;;;;3.13;2.92;;;;;;;-3.32;100.00;100376.00;4935805;29;20102;-71
2022/01/25 06:42:37;;;;;;;3.17;3.00;;;;;;;-3.34;100.00;100382.59;4935715;29;20149;-71
2022/01/25 06:45:08;;;;;;;2.15;2.05;;;;;;;-3.26;100.00;100387.38;4934032;29;20485;-71
2022/01/25 06:47:33;;;;;;;2.63;2.40;;;;;;;-3.32;100.00;100386.13;4935498;29;20039;-71
2022/01/25 06:49:59;;;;;;;1.30;1.27;;;;;;;-3.34;100.00;100383.47;4935289;29;20033;-71
2022/01/25 06:52:24;;;;;;;4.65;3.17;;;;;;;-3.31;100.00;100387.88;4935384;29;20099;-71
2022/01/25 06:54:50;;;;;;;2.22;2.13;;;;;;;-3.29;100.00;100393.91;4935130;29;20028;-71
2022/01/25 06:57:15;;;;;;;3.72;1.92;;;;;;;-3.29;100.00;100388.84;4935207;29;20023;-71
2022/01/25 06:59:41;;;;;;;1.50;1.50;;;;;;;-3.28;100.00;100395.69;4935161;29;20520;-71
2022/01/25 07:02:07;;;;;;;3.25;3.05;;;;;;;-3.26;100.00;100401.72;4933543;29;20078;-71
2022/01/25 07:04:32;;;;;;;3.45;2.75;;;;;;;-3.26;100.00;100404.25;4927140;29;20019;-71
2022/01/25 07:06:57;;;;;;;1.73;1.67;;;;;;;-3.24;100.00;100401.03;4934862;29;20038;-71
2022/01/25 07:09:23;;;;;;;1.15;1.15;;;;;;;-3.28;100.00;100404.16;4935057;29;20369;-71
2022/01/25 07:11:48;;;;;;;1.63;1.58;;;;;;;-3.35;100.00;100396.94;4935079;29;20066;-71
2022/01/25 07:14:14;;;;;;;1.80;1.77;;;;;;;-3.28;100.00;100400.75;4934997;29;20087;-71
2022/01/25 07:16:39;;;;;;;1.20;1.20;;;;;;;-3.37;100.00;100396.84;4934645;29;20066;-71
2022/01/25 07:19:05;;;;;;;2.35;2.25;;;;;;;-3.42;100.00;100403.28;4934865;29;20055;-71
2022/01/25 07:21:30;;;;;;;3.35;3.13;;;;;;;-3.40;100.00;100409.31;4934897;29;20042;-71
2022/01/25 07:23:55;;;;;;;1.25;1.25;;;;;;;-3.37;100.00;100409.50;4934815;29;20027;-71
2022/01/25 07:26:21;;;;;;;4.50;2.60;;;;;;;-3.40;100.00;100405.91;4934163;29;20032;-71
2022/01/25 07:28:46;;;;;;;2.67;1.73;;;;;;;-3.39;100.00;100408.50;4934892;29;20051;-71
2022/01/25 07:31:12;;;;;;;2.55;2.45;;;;;;;-3.40;100.00;100406.78;4934869;29;20032;-71
2022/01/25 07:33:38;;;;;;;3.20;2.60;;;;;;;-3.31;100.00;100398.88;4926639;29;20075;-71
2022/01/25 07:36:05;;;;;;;5.65;3.17;;;;;;;-3.34;100.00;100398.69;4934333;29;20078;-71
2022/01/25 07:38:30;;;;;;;1.30;1.30;;;;;;;-3.22;100.00;100393.53;4934620;29;20039;-71
2022/01/25 07:40:55;;;;;;;1.33;1.33;;;;;;;-3.23;100.00;100405.31;4933418;29;20437;-71
2022/01/25 07:43:21;;;;;;;3.17;3.05;;;;;;;-3.20;100.00;100397.00;4934886;29;20054;-71
2022/01/25 07:45:51;;;;;;;3.47;3.28;;;;;;;-3.12;100.00;100398.38;4934523;29;20020;-71
2022/01/25 07:48:18;;;;;;;3.55;3.22;;;;;;;-2.95;100.00;100405.38;4934615;29;20102;-71
2022/01/25 07:50:43;;;;;;;3.35;2.75;;;;;;;-2.88;100.00;100397.34;4934711;29;20027;-71
2022/01/25 07:53:09;;;;;;;3.03;2.88;;;;;;;-2.77;100.00;100394.59;4934504;29;20547;-71
2022/01/25 07:55:34;;;;;;;2.95;2.75;;;;;;;-2.93;99.92;100398.72;4934566;29;20035;-68
2022/01/25 07:57:59;;;;;;;3.25;3.03;;;;;;;-2.76;99.67;100386.19;4934465;29;20401;-68
2022/01/25 08:00:25;;;;;;;2.42;2.22;;;;;;;-2.71;98.92;100392.44;4934634;29;20024;-68
2022/01/25 08:02:51;;;;;;;3.38;2.95;;;;;;;-2.53;98.84;100401.16;4932427;29;20107;-68
2022/01/25 08:05:18;;;;;;;3.97;2.58;;;;;;;-2.63;98.33;100393.78;4928420;29;20066;-68
2022/01/25 08:07:45;;;;;;;3.53;3.22;;;;;;;-2.57;98.13;100389.06;4934199;29;20405;-69
2022/01/25 08:10:11;;;;;;;1.83;1.75;;;;;;;-2.34;97.96;100383.69;4934705;29;20027;-68
2022/01/25 08:12:38;;;;;;;3.22;3.03;;;;;;;-2.21;97.21;100394.59;4934414;29;20024;-68
2022/01/25 08:15:05;;;;;;;2.95;2.80;;;;;;;-2.11;96.62;100392.66;4934510;29;20056;-68
2022/01/25 08:17:31;;;;;;;1.40;1.30;;;;;;;-2.00;96.12;100389.88;4933997;29;20028;-68
2022/01/25 08:19:56;;;;;;;9.10;4.63;;;;;;;-1.60;95.39;100378.63;4934439;29;20055;-68
2022/01/25 08:22:23;;;;;;;8.05;2.67;;;;;;;0.74;89.12;100378.00;4934309;29;20038;-68
2022/01/25 08:24:48;;;;;;;4.78;4.35;;;;;;;2.83;74.38;100363.09;4934473;29;20397;-68
2022/01/25 08:27:15;;;;;;;6.22;3.03;;;;;;;4.73;64.88;100354.28;4934100;29;20119;-68
2022/01/25 08:29:40;;;;;;;3.78;3.47;;;;;;;6.28;60.19;100346.63;4934348;29;20110;-68
2022/01/25 08:32:06;;;;;;;7.15;4.63;;;;;;;6.82;55.79;100353.06;4933922;29;20102;-69
2022/01/25 08:34:32;;;;;;;7.28;3.97;;;;;;;7.56;53.79;100350.31;4926090;29;20063;-69
2022/01/25 08:36:58;;;;;;;3.85;3.45;;;;;;;9.32;50.57;100354.00;4934461;29;20488;-69
2022/01/25 08:39:26;;;;;;;4.13;3.83;;;;;;;9.75;46.76;100349.34;4937775;29;20049;-69
2022/01/25 08:41:52;;;;;;;6.25;3.65;;;;;;;8.14;47.87;100356.53;4937891;29;20457;-69
2022/01/25 08:44:17;;;;;;;7.53;4.13;;;;;;;9.04;48.09;100357.09;4937798;29;20031;-69
2022/01/25 08:46:43;;;;;;;7.45;4.20;;;;;;;9.64;45.43;100351.81;4937413;29;20051;-69
2022/01/25 08:49:08;;;;;;;4.28;3.83;;;;;;;8.75;47.79;100362.72;4937508;29;20034;-69
2022/01/25 08:51:34;;;;;;;4.38;3.33;;;;;;;7.94;49.00;100364.81;4937425;29;20032;-69
2022/01/25 08:53:59;;;;;;;6.75;2.90;;;;;;;8.47;47.21;100370.06;4937351;29;20036;-69
2022/01/25 08:56:24;;;;;;;7.13;3.58;;;;;;;9.40;47.01;100359.28;4937174;29;20032;-69
2022/01/25 08:58:50;;;;;;;5.43;4.15;;;;;;;8.68;48.28;100368.66;4937380;29;20031;-69
2022/01/25 09:01:16;;;;;;;6.78;3.28;;;;;;;8.87;49.20;100369.78;4937263;29;20099;-69
2022/01/25 09:03:41;;;;;;;4.63;3.47;;;;;;;8.72;48.37;100370.44;4928639;29;20062;-69
2022/01/25 09:06:08;;;;;;;6.53;3.33;;;;;;;8.08;50.82;100374.50;4917895;29;20028;-69
2022/01/25 09:08:33;;;;;;;4.15;3.53;;;;;;;8.52;48.81;100371.84;4918270;29;20024;-68
2022/01/25 09:11:02;;;;;;;9.70;5.43;;;;;;;9.86;45.96;100368.44;4918144;29;20047;-69
2022/01/25 09:13:29;;;;;;;6.75;3.95;;;;;;;10.52;44.18;100362.16;4918241;29;20238;-69
2022/01/25 09:15:54;;;;;;;4.50;4.05;;;;;;;12.00;41.71;100354.25;4917656;29;20489;-69
2022/01/25 09:18:21;;;;;;;7.47;4.32;;;;;;;11.49;42.40;100358.41;4918028;29;20043;-69
2022/01/25 09:20:47;;;;;;;4.68;3.53;;;;;;;12.98;39.35;100349.00;4917914;29;20030;-69
2022/01/25 09:23:15;;;;;;;7.05;4.28;;;;;;;11.23;41.67;100363.50;4917989;29;20099;-69
2022/01/25 09:25:41;;;;;;;11.67;5.07;;;;;;;11.08;42.43;100363.41;4917741;29;20036;-69
2022/01/25 09:28:06;;;;;;;5.25;3.72;;;;;;;11.12;43.23;100364.28;4918079;29;20024;-69
2022/01/25 09:30:32;;;;;;;5.80;3.78;;;;;;;10.99;42.10;100366.81;4917788;29;20028;-69
2022/01/25 09:32:57;;;;;;;6.93;3.42;;;;;;;9.89;44.95;100367.63;4925489;29;20498;-69
2022/01/25 09:35:23;;;;;;;6.28;3.70;;;;;;;12.73;40.85;100357.75;4930740;29;20581;-69
2022/01/25 09:37:49;;;;;;;4.60;3.38;;;;;;;12.51;39.21;100355.13;4936374;29;20418;-69
2022/01/25 09:40:14;;;;;;;5.25;3.08;;;;;;;13.48;38.38;100347.13;4936624;29;20107;-69
2022/01/25 09:42:40;;;;;;;3.88;3.30;;;;;;;14.17;36.29;100346.72;4936536;29;20035;-69
2022/01/25 09:45:06;;;;;;;5.60;3.53;;;;;;;14.63;35.60;100353.31;4936626;29;20478;-69
2022/01/25 09:47:32;;;;;;;3.72;3.03;;;;;;;13.25;37.81;100348.09;4936001;28;20035;-69
2022/01/25 09:49:57;;;;;;;7.07;3.67;;;;;;;14.68;36.03;100345.44;4936280;29;20031;-69
2022/01/25 09:52:23;;;;;;;9.18;3.97;;;;;;;14.91;35.28;100342.63;4936313;29;20028;-69
2022/01/25 09:54:57;;;;;;;8.55;4.22;;;;;;;14.04;37.30;100346.81;4936387;29;20067;-69
2022/01/25 09:57:23;;;;;;;7.38;3.50;;;;;;;14.61;35.71;100347.28;4935989;29;20034;-69
2022/01/25 09:59:49;;;;;;;8.57;4.50;;;;;;;13.19;37.17;100344.59;4936260;29;20040;-69
2022/01/25 10:02:42;;;;;;;4.63;3.25;;;;;;;12.95;38.35;100343.81;4935269;29;20429;-69
2022/01/25 10:05:24;;;;;;;7.88;3.90;;;;;;;12.97;38.92;100352.50;4920928;29;20034;-69
2022/01/25 10:08:06;;;;;;;7.20;3.83;;;;;;;12.81;39.33;100355.97;4936016;29;20028;-69
2022/01/25 10:10:34;;;;;;;5.25;2.92;;;;;;;13.71;39.05;100347.03;4935902;29;20119;-69
2022/01/25 10:13:20;;;;;;;4.72;3.97;;;;;;;14.82;35.54;100347.94;4936166;29;20160;-69
2022/01/25 10:15:47;;;;;;;8.80;3.95;;;;;;;16.49;33.69;100343.97;4935715;29;20382;-69
2022/01/25 10:18:13;;;;;;;5.68;3.35;;;;;;;17.17;32.27;100334.03;4935803;29;20035;-69
2022/01/25 10:20:41;;;;;;;8.88;5.30;;;;;;;15.26;34.38;100350.06;4935949;29;20028;-69
2022/01/25 10:23:12;;;;;;;7.60;4.22;;;;;;;17.39;32.29;100334.44;4935739;29;20024;-69
2022/01/25 10:25:41;;;;;;;7.10;3.83;;;;;;;17.98;30.99;100341.91;4935811;29;20024;-69
2022/01/25 10:28:12;;;;;;;6.07;3.60;;;;;;;17.02;32.11;100336.06;4935760;29;20020;-70
2022/01/25 10:30:53;;;;;;;7.43;4.15;;;;;;;18.69;29.68;100334.06;4935684;29;20512;-70
2022/01/25 10:33:29;;;;;;;5.53;3.70;;;;;;;18.01;30.37;100338.38;4930002;29;20032;-69
2022/01/25 10:35:57;;;;;;;9.43;5.22;;;;;;;18.99;28.98;100334.13;4933925;29;20082;-69
2022/01/25 10:38:32;;;;;;;8.95;4.25;;;;;;;17.72;30.56;100327.59;4935393;29;20086;-69
2022/01/25 10:41:02;;;;;;;7.28;3.47;;;;;;;17.53;31.61;100330.66;4935586;29;20042;-69
2022/01/25 10:43:28;;;;;;;5.43;2.85;;;;;;;17.97;30.02;100327.06;4935335;29;20028;-69
2022/01/25 10:46:04;;;;;;;6.88;3.72;;;;;;;18.36;29.29;100325.25;4935164;29;20075;-69
2022/01/25 10:48:30;;;;;;;8.75;3.30;;;;;;;17.21;30.75;100319.09;4935575;29;20050;-69
2022/01/25 10:51:12;;;;;;;5.93;3.95;;;;;;;16.67;31.73;100327.06;4935392;29;20031;-69
2022/01/25 10:53:38;;;;;;;5.18;3.83;;;;;;;15.66;33.69;100328.69;4935400;29;20477;-69
2022/01/25 10:56:05;;;;;;;5.13;3.30;;;;;;;15.73;33.37;100326.84;4935000;29;20397;-69
2022/01/25 10:58:35;;;;;;;6.38;4.22;;;;;;;15.83;33.22;100325.84;4935068;29;20026;-69
2022/01/25 11:01:00;;;;;;;4.50;2.78;;;;;;;15.32;33.87;100317.78;4934590;29;20055;-69
2022/01/25 11:03:41;;;;;;;3.50;2.67;;;;;;;14.88;35.44;100321.75;4928727;29;20055;-69
2022/01/25 11:06:12;;;;;;;4.55;3.00;;;;;;;15.11;33.85;100319.75;4934651;29;20167;-69
2022/01/25 11:08:39;;;;;;;5.85;3.53;;;;;;;15.81;33.99;100317.13;4935107;29;20481;-69
2022/01/25 11:11:08;;;;;;;6.55;3.65;;;;;;;14.25;35.00;100324.06;4934916;29;20424;-69
2022/01/25 11:13:36;;;;;;;4.73;3.10;;;;;;;15.53;34.46;100317.50;4935273;29;20109;-70
2022/01/25 11:16:08;;;;;;;5.57;3.73;;;;;;;15.94;33.13;100313.47;4934806;29;20078;-69
2022/01/25 11:18:35;;;;;;;7.70;4.20;;;;;;;15.76;33.39;100305.88;4934964;29;20279;-69
2022/01/25 11:21:05;;;;;;;6.50;3.50;;;;;;;14.42;35.49;100316.97;4934917;29;20433;-69
2022/01/25 11:23:33;;;;;;;10.18;4.38;;;;;;;14.74;35.10;100308.00;4934847;29;20036;-69
2022/01/25 11:26:01;;;;;;;6.45;3.55;;;;;;;14.89;35.70;100303.50;4934585;29;20083;-69
2022/01/25 11:28:29;;;;;;;5.15;3.15;;;;;;;13.97;36.81;100308.63;4935537;29;20393;-74
2022/01/25 11:30:55;;;;;;;9.48;4.57;;;;;;;13.65;37.68;100313.19;4934826;29;20047;-73
2022/01/25 11:33:21;;;;;;;9.93;4.32;;;;;;;14.06;37.19;100305.09;4928819;29;20067;-73
2022/01/25 11:35:49;;;;;;;9.30;4.53;;;;;;;14.24;37.12;100297.13;4931638;29;20024;-74
2022/01/25 11:38:14;;;;;;;6.97;4.10;;;;;;;14.79;36.59;100300.97;4934422;29;20028;-72
2022/01/25 11:40:46;;;;;;;6.80;3.67;;;;;;;14.55;35.82;100295.16;4934759;29;20393;-75
2022/01/25 11:43:14;;;;;;;10.05;4.03;;;;;;;13.40;37.78;100300.31;4934591;29;20023;-75
2022/01/25 11:45:48;;;;;;;12.00;4.00;;;;;;;12.24;40.17;100308.38;4934489;29;20057;-75
2022/01/25 11:48:18;;;;;;;4.75;3.47;;;;;;;11.43;42.10;100314.25;4934517;29;20046;-75
2022/01/25 11:50:44;;;;;;;8.10;3.95;;;;;;;11.27;43.71;100312.50;4934543;29;20492;-75
2022/01/25 11:53:13;;;;;;;7.68;4.20;;;;;;;11.48;42.67;100306.50;4934378;29;20076;-70
2022/01/25 11:55:48;;;;;;;7.70;3.47;;;;;;;12.79;40.77;100300.50;4934532;29;20039;-76
2022/01/25 11:58:34;;;;;;;5.95;3.30;;;;;;;14.00;39.07;100295.59;4934675;29;20114;-75
2022/01/25 12:01:03;;;;;;;5.22;3.58;;;;;;;13.85;39.14;100303.53;4934341;29;20405;-75
2022/01/25 12:03:40;;;;;;;6.35;4.13;;;;;;;13.76;38.09;100306.19;4933650;29;20050;-74
2022/01/25 12:06:20;;;;;;;7.63;4.28;;;;;;;13.53;38.82;100307.16;4934511;29;20036;-74
2022/01/25 12:08:52;;;;;;;11.73;5.05;;;;;;;13.75;38.29;100304.44;4934540;29;20398;-75
2022/01/25 12:11:28;;;;;;;8.73;4.03;;;;;;;15.40;35.71;100295.03;4935710;29;20132;-75
2022/01/25 12:14:18;;;;;;;6.25;4.18;;;;;;;16.69;33.80;100289.53;4938248;29;20019;-74
2022/01/25 12:16:47;;;;;;;5.70;3.63;;;;;;;15.34;35.29;100289.91;4937875;29;20059;-76
2022/01/25 12:19:14;;;;;;;6.50;3.35;;;;;;;15.53;35.58;100285.31;4938057;29;20031;-74
2022/01/25 12:21:53;;;;;;;7.03;3.50;;;;;;;15.54;36.09;100287.88;4938096;29;20032;-73
2022/01/25 12:24:20;;;;;;;8.88;3.75;;;;;;;15.48;35.95;100287.97;4938159;29;20047;-70
2022/01/25 12:27:06;;;;;;;9.32;4.57;;;;;;;15.12;36.90;100281.47;4937543;29;20515;-73
2022/01/25 12:29:52;;;;;;;7.03;3.67;;;;;;;14.48;38.26;100290.88;4937929;29;20485;-73
2022/01/25 12:32:23;;;;;;;5.57;3.30;;;;;;;14.13;39.21;100283.34;4936650;29;20034;-73
2022/01/25 12:35:14;;;;;;;10.35;5.20;;;;;;;14.38;39.21;100283.97;4929687;29;20305;-73
2022/01/25 12:37:42;;;;;;;9.57;4.40;;;;;;;11.38;44.79;100284.84;4937552;29;20102;-73
2022/01/25 12:40:25;;;;;;;7.95;4.43;;;;;;;8.59;51.71;100288.41;4937670;29;20028;-73
2022/01/25 12:42:57;;;;;;;7.95;3.60;;;;;;;7.61;55.83;100289.38;4937583;29;20036;-73
2022/01/25 12:45:25;;;;;;;9.30;5.40;;;;;;;6.92;59.27;100291.47;4937528;29;20047;-73
2022/01/25 12:47:57;;;;;;;9.73;4.30;;;;;;;6.52;61.16;100299.13;4937540;29;20332;-73
2022/01/25 12:50:24;;;;;;;6.03;4.00;;;;;;;6.22;61.84;100289.00;4937588;29;20050;-73
2022/01/25 12:52:49;;;;;;;5.78;4.43;;;;;;;6.33;61.86;100293.53;4937520;29;20036;-73
2022/01/25 12:55:16;;;;;;;9.73;5.55;;;;;;;6.56;62.80;100285.50;4936020;29;20028;-73
2022/01/25 12:57:46;;;;;;;4.68;3.90;;;;;;;6.61;62.04;100281.31;4937245;29;20035;-73
2022/01/25 13:00:13;;;;;;;5.28;4.82;;;;;;;6.49;62.03;100279.34;4937512;29;20094;-73
2022/01/25 13:02:38;;;;;;;3.72;2.80;;;;;;;6.55;60.14;100274.31;4935771;29;20098;-73
2022/01/25 13:05:18;;;;;;;4.72;3.03;;;;;;;6.93;59.23;100272.56;4929305;29;20123;-73
2022/01/25 13:07:44;;;;;;;4.55;3.88;;;;;;;7.29;58.03;100270.69;4937029;29;20030;-73
2022/01/25 13:10:12;;;;;;;8.13;3.78;;;;;;;6.99;59.34;100260.66;4937174;29;20028;-73
2022/01/25 13:12:54;;;;;;;3.67;3.22;;;;;;;6.94;59.85;100268.28;4937303;29;20023;-73
2022/01/25 13:15:39;;;;;;;4.25;3.42;;;;;;;7.14;59.96;100261.81;4936929;29;20031;-73
2022/01/25 13:18:14;;;;;;;8.45;3.50;;;;;;;7.47;59.21;100263.31;4936841;29;20063;-73
2022/01/25 13:20:44;;;;;;;3.97;3.53;;;;;;;7.22;58.61;100264.56;4936970;29;20308;-73
2022/01/25 13:23:10;;;;;;;4.13;3.22;;;;;;;7.40;59.76;100270.09;4936332;29;20039;-73
2022/01/25 13:25:57;;;;;;;11.50;5.80;;;;;;;7.38;59.02;100260.56;4936778;29;20036;-73
2022/01/25 13:30:39;;;;;;;5.40;3.50;;;;;;;7.04;60.18;100265.06;4936893;29;20027;-73
2022/01/25 13:31:09;;;;;;;6.30;4.35;;;;;;;6.83;61.69;100262.06;4936190;29;20532;-72
2022/01/25 13:33:35;;;;;;;5.13;3.97;;;;;;;6.90;62.11;100262.19;4929056;29;20270;-73
2022/01/25 13:36:01;;;;;;;3.95;3.55;;;;;;;6.91;61.21;100256.22;4934838;29;20024;-73
2022/01/25 13:38:29;;;;;;;4.28;3.38;;;;;;;6.84;62.40;100256.94;4936740;29;20059;-73
2022/01/25 13:46:41;;;;;;;4.85;3.95;;;;;;;6.71;64.51;100252.34;4936403;29;20027;-73
2022/01/25 13:49:15;;;;;;;5.40;4.53;;;;;;;6.61;65.18;100247.84;4936620;29;20106;-73
2022/01/25 13:51:57;;;;;;;6.38;4.40;;;;;;;6.38;65.42;100250.78;4936755;29;20031;-73
2022/01/25 13:54:27;;;;;;;4.85;3.20;;;;;;;6.25;65.08;100247.91;4936490;29;20032;-73
2022/01/25 13:56:54;;;;;;;5.40;3.85;;;;;;;6.31;65.36;100254.03;4935973;29;20485;-73
2022/01/25 13:59:24;;;;;;;6.95;2.97;;;;;;;6.29;66.31;100253.16;4936281;29;20040;-73
2022/01/25 14:01:49;;;;;;;8.82;4.25;;;;;;;6.19;66.64;100253.78;4934514;29;20038;-73
2022/01/25 14:04:26;;;;;;;9.30;4.68;;;;;;;6.11;67.45;100256.16;4928287;29;20102;-73
2022/01/25 14:06:54;;;;;;;18.40;4.32;;;;;;;6.23;67.11;100258.13;4935841;29;20028;-73
2022/01/25 14:09:27;;;;;;;5.63;3.28;;;;;;;6.28;67.73;100251.38;4936196;29;20038;-73
2022/01/25 14:25:39;;;;;;;6.47;5.57;;;;;;;5.93;70.55;100263.44;4936002;29;20027;-73
2022/01/25 14:28:14;;;;;;;7.72;5.60;;;;;;;6.06;70.75;100256.88;4935564;29;20118;-73
2022/01/25 14:30:43;;;;;;;5.72;4.55;;;;;;;5.53;72.33;100264.09;4935855;29;20064;-73
2022/01/25 14:33:14;;;;;;;8.73;4.82;;;;;;;5.75;70.99;100261.22;4931151;29;20042;-73
2022/01/25 14:35:47;;;;;;;10.60;5.13;;;;;;;5.29;72.54;100262.59;4930371;29;20031;-73
2022/01/25 14:38:19;;;;;;;5.68;5.10;;;;;;;5.10;73.56;100252.66;4935518;29;20035;-73
2022/01/25 14:41:12;;;;;;;7.13;6.13;;;;;;;4.60;76.13;100260.66;4935651;29;20027;-73
2022/01/25 14:43:45;;;;;;;6.28;5.43;;;;;;;4.98;74.47;100254.88;4932617;28;20042;-73
2022/01/25 14:46:14;;;;;;;7.88;5.22;;;;;;;4.38;76.13;100259.13;4935493;29;20039;-73
2022/01/25 14:48:43;;;;;;;10.90;5.10;;;;;;;4.50;75.99;100257.78;4935501;29;20031;-73
2022/01/25 14:51:11;;;;;;;7.70;5.50;;;;;;;4.44;77.19;100262.69;4935465;29;20032;-73
2022/01/25 14:53:37;;;;;;;7.72;5.22;;;;;;;4.32;77.84;100258.06;4935391;29;20032;-73
2022/01/25 14:56:04;;;;;;;8.30;4.95;;;;;;;4.20;78.50;100258.53;4934898;29;20075;-73
2022/01/25 15:01:32;;;;;;;7.70;5.82;;;;;;;3.60;81.15;100263.44;4932975;29;20047;-74
2022/01/25 15:03:57;;;;;;;11.35;6.93;;;;;;;3.26;82.28;100256.28;4924985;29;20036;-74
2022/01/25 15:06:23;;;;;;;12.35;5.18;;;;;;;3.24;83.16;100263.91;4934802;29;20034;-73
2022/01/25 15:08:56;;;;;;;6.32;5.20;;;;;;;3.06;83.08;100268.38;4935353;29;20497;-70
2022/01/25 15:11:24;;;;;;;8.52;5.47;;;;;;;3.01;84.06;100270.75;4935020;29;20032;-72
2022/01/25 15:13:57;;;;;;;7.05;6.18;;;;;;;2.78;84.33;100269.91;4935060;29;20039;-73
2022/01/25 15:16:23;;;;;;;5.40;4.90;;;;;;;2.66;85.66;100274.59;4934601;29;20519;-73
2022/01/25 15:18:49;;;;;;;15.95;6.80;;;;;;;2.40;86.70;100278.69;4934861;29;20057;-73
2022/01/25 15:21:15;;;;;;;5.47;4.15;;;;;;;2.36;87.55;100281.06;4934764;29;20098;-72
2022/01/25 15:23:45;;;;;;;8.45;6.35;;;;;;;2.16;88.42;100283.72;4934942;29;20608;-73
2022/01/25 15:26:12;;;;;;;5.38;4.70;;;;;;;2.10;89.01;100286.03;4934770;29;20043;-73
2022/01/25 15:28:43;;;;;;;8.95;7.95;;;;;;;2.03;89.01;100286.56;4934987;29;20019;-73
2022/01/25 15:31:11;;;;;;;10.60;4.88;;;;;;;1.89;90.12;100290.28;4934797;29;20394;-73
2022/01/25 15:33:38;;;;;;;5.40;4.28;;;;;;;1.82;90.32;100290.81;4926609;29;20028;-73
2022/01/25 15:36:07;;;;;;;12.27;6.72;;;;;;;1.72;90.68;100287.88;4933156;29;20071;-73
2022/01/25 15:38:34;;;;;;;6.30;5.45;;;;;;;1.61;91.04;100291.69;4934689;29;20035;-73
2022/01/25 15:41:07;;;;;;;5.53;4.05;;;;;;;1.38;91.63;100302.59;4934607;29;20028;-73
2022/01/25 15:43:37;;;;;;;4.90;4.43;;;;;;;1.34;92.56;100295.59;4934781;29;20028;-73
2022/01/25 15:46:05;;;;;;;6.63;5.82;;;;;;;1.27;92.80;100295.34;4935033;28;20026;-73
2022/01/25 15:48:31;;;;;;;14.02;3.85;;;;;;;1.21;92.99;100305.28;4938926;29;20031;-73
2022/01/25 15:50:58;;;;;;;11.18;6.28;;;;;;;1.24;92.69;100300.31;4938740;29;20032;-73
2022/01/25 15:53:23;;;;;;;3.78;3.53;;;;;;;1.14;93.17;100305.81;4938755;29;20108;-73
2022/01/25 15:55:49;;;;;;;13.23;6.68;;;;;;;0.97;94.10;100301.66;4938255;29;20106;-73
2022/01/25 15:58:16;;;;;;;9.77;4.75;;;;;;;0.88;95.06;100299.56;4938206;29;20080;-73
2022/01/25 16:00:47;;;;;;;3.85;3.50;;;;;;;0.89;95.27;100302.97;4938275;29;20035;-73
2022/01/25 16:03:17;;;;;;;5.75;4.22;;;;;;;0.69;95.76;100305.50;4933475;29;20494;-73
2022/01/25 16:05:43;;;;;;;10.80;6.22;;;;;;;0.65;96.41;100308.72;4919208;29;20031;-73
2022/01/25 16:08:08;;;;;;;17.13;8.00;;;;;;;0.59;97.02;100305.88;4919177;29;20055;-73
2022/01/25 16:10:35;;;;;;;5.65;5.15;;;;;;;0.70;96.91;100303.81;4919220;29;20028;-73
2022/01/25 16:13:01;;;;;;;4.57;4.22;;;;;;;0.65;96.70;100306.16;4919099;29;20032;-73
2022/01/25 16:15:26;;;;;;;5.82;5.32;;;;;;;0.70;96.97;100312.34;4918838;29;20036;-73
2022/01/25 16:17:51;;;;;;;5.72;5.18;;;;;;;0.74;96.70;100309.13;4918947;29;20024;-73
2022/01/25 16:20:17;;;;;;;12.23;6.70;;;;;;;0.79;97.13;100308.47;4919098;29;20024;-73
2022/01/25 16:22:42;;;;;;;8.57;5.78;;;;;;;0.89;95.77;100316.59;4918940;29;20032;-73
2022/01/25 16:25:07;;;;;;;5.25;4.80;;;;;;;0.86;95.80;100310.47;4918910;29;20035;-73
2022/01/25 16:27:33;;;;;;;10.57;4.88;;;;;;;0.87;96.20;100312.22;4918781;29;20049;-73
2022/01/25 16:29:58;;;;;;;11.43;4.95;;;;;;;0.76;95.91;100317.72;4918813;29;20575;-73
2022/01/25 16:32:25;;;;;;;4.88;4.57;;;;;;;0.80;96.04;100310.22;4923504;29;20091;-73
2022/01/25 16:34:50;;;;;;;4.97;4.65;;;;;;;0.90;96.10;100317.47;4929904;29;20103;-73
2022/01/25 16:37:16;;;;;;;11.57;4.82;;;;;;;0.78;95.74;100317.81;4937603;29;20106;-73
2022/01/25 16:39:41;;;;;;;5.93;4.78;;;;;;;1.02;95.83;100318.03;4937650;29;20038;-73
2022/01/25 16:42:07;;;;;;;5.35;4.53;;;;;;;1.18;94.56;100309.38;4937774;29;20055;-73
2022/01/25 16:44:33;;;;;;;5.18;4.65;;;;;;;1.13;93.82;100316.84;4937601;29;20028;-73
2022/01/25 16:46:58;;;;;;;4.35;4.03;;;;;;;0.94;93.84;100319.38;4937393;29;20159;-74